Time;durP1;ratioP1;P1;durP2;ratioP2;P2;SDS_P1;SDS_P2;PMS_P1;PMS_P2;Temp;Humidity;BMP_temperature;BMP_pressure;BME280_temperature;BME280_humidity;BME280_pressure;Samples;Min_cycle;Max_cycle;Signal;HPM_P1;HPM_P2
2023/05/02 00:00:51;;;;;;;56.35;6.00;;;29.70;27.70;;;;;;5014422;28;20106;-61
2023/05/02 00:03:17;;;;;;;53.90;5.65;;;29.50;28.10;;;;;;5013197;28;20505;-63
2023/05/02 00:05:44;;;;;;;43.33;5.28;;;29.50;27.20;;;;;;5017739;28;20059;-64
2023/05/02 00:08:11;;;;;;;62.60;6.80;;;29.40;27.00;;;;;;5014826;28;20063;-63
2023/05/02 00:10:38;;;;;;;46.95;5.88;;;29.40;27.40;;;;;;5014958;28;20089;-62
2023/05/02 00:13:04;;;;;;;49.85;5.80;;;29.30;27.60;;;;;;5017172;28;20110;-61
2023/05/02 00:15:30;;;;;;;63.10;7.97;;;29.30;27.90;;;;;;5018520;28;20147;-63
2023/05/02 00:17:57;;;;;;;59.63;6.38;;;29.00;28.50;;;;;;5012524;28;20115;-62
2023/05/02 00:20:23;;;;;;;71.78;6.63;;;29.00;28.30;;;;;;5013977;28;20119;-64
2023/05/02 00:22:50;;;;;;;76.03;6.93;;;28.80;28.50;;;;;;5013266;28;20476;-64
2023/05/02 00:25:16;;;;;;;66.82;6.25;;;28.80;28.40;;;;;;5014345;28;20524;-61
2023/05/02 00:27:46;;;;;;;60.75;6.63;;;28.70;28.90;;;;;;5019592;28;20112;-69
2023/05/02 00:30:13;;;;;;;65.40;6.95;;;28.50;29.30;;;;;;5014396;28;20544;-65
2023/05/02 00:32:39;;;;;;;45.88;4.97;;;28.60;29.30;;;;;;5018533;28;20092;-63
2023/05/02 00:35:06;;;;;;;50.38;4.95;;;28.70;29.10;;;;;;5019853;28;20065;-66
2023/05/02 00:37:33;;;;;;;47.83;5.38;;;28.80;28.60;;;;;;5016630;28;20121;-67
2023/05/02 00:39:59;;;;;;;52.50;4.63;;;28.50;28.50;;;;;;5019917;28;20100;-65
2023/05/02 00:42:28;;;;;;;47.97;5.03;;;28.30;29.20;;;;;;5014006;28;20584;-61
2023/05/02 00:44:54;;;;;;;39.88;5.25;;;28.10;28.90;;;;;;5016464;28;20090;-61
2023/05/02 00:47:21;;;;;;;44.90;5.60;;;28.00;27.90;;;;;;5013525;28;20140;-61
2023/05/02 00:49:48;;;;;;;58.28;6.53;;;28.00;28.30;;;;;;5017817;28;20588;-63
2023/05/02 00:52:15;;;;;;;69.90;6.13;;;27.90;28.60;;;;;;5018074;28;20103;-63
2023/05/02 00:54:42;;;;;;;50.20;5.97;;;27.80;29.30;;;;;;5019862;28;20071;-62
2023/05/02 00:57:08;;;;;;;47.47;5.70;;;27.70;29.30;;;;;;5022688;28;20094;-65
2023/05/02 00:59:36;;;;;;;47.00;5.47;;;27.40;29.60;;;;;;5016818;28;20098;-61
2023/05/02 01:02:15;;;;;;;48.42;6.05;;;27.30;31.00;;;;;;5017034;28;20117;-59
2023/05/02 01:05:04;;;;;;;55.53;5.85;;;27.40;32.80;;;;;;5017499;28;20515;-64
2023/05/02 01:07:46;;;;;;;56.45;6.00;;;27.40;34.40;;;;;;5016094;28;20076;-65
2023/05/02 01:10:31;;;;;;;45.72;5.25;;;27.30;35.10;;;;;;5025337;28;20541;-66
2023/05/02 01:13:27;;;;;;;45.05;5.28;;;27.10;35.10;;;;;;5022219;28;20064;-67
2023/05/02 01:15:55;;;;;;;37.40;4.38;;;26.80;35.80;;;;;;5022157;28;20098;-68
2023/05/02 01:18:24;;;;;;;69.80;6.32;;;26.60;35.70;;;;;;5022781;28;20085;-65
2023/05/02 01:20:57;;;;;;;51.13;5.47;;;26.00;36.00;;;;;;5022162;28;20073;-68
2023/05/02 01:23:49;;;;;;;62.85;5.97;;;25.80;36.40;;;;;;5022280;28;20075;-68
2023/05/02 01:26:34;;;;;;;56.17;6.30;;;25.80;36.40;;;;;;4975218;28;20452;-66
2023/05/02 01:29:01;;;;;;;51.83;6.07;;;25.80;35.90;;;;;;5018367;28;20082;-72
2023/05/02 01:31:54;;;;;;;66.88;6.85;;;25.70;36.00;;;;;;5019905;28;20798;-68
2023/05/02 01:34:22;;;;;;;66.55;6.90;;;25.50;36.50;;;;;;5019421;28;20130;-70
2023/05/02 01:36:50;;;;;;;76.95;6.45;;;25.50;36.60;;;;;;5025795;28;20076;-67
2023/05/02 01:39:21;;;;;;;77.88;6.95;;;25.40;36.60;;;;;;5025421;28;20442;-64
2023/05/02 01:41:53;;;;;;;77.95;6.38;;;25.20;36.80;;;;;;5020570;28;20525;-66
2023/05/02 01:44:22;;;;;;;83.43;7.40;;;24.90;36.90;;;;;;5020560;28;20065;-69
2023/05/02 01:46:50;;;;;;;76.88;6.28;;;24.80;37.50;;;;;;5020838;28;20116;-67
2023/05/02 01:49:18;;;;;;;102.22;8.15;;;24.70;37.70;;;;;;5020515;28;20550;-67
2023/05/02 01:51:48;;;;;;;80.65;6.93;;;24.70;37.30;;;;;;5021766;28;20525;-69
2023/05/02 01:54:16;;;;;;;101.43;9.00;;;24.50;37.70;;;;;;5008066;28;20081;-69
2023/05/02 01:56:45;;;;;;;81.00;6.72;;;24.40;37.90;;;;;;5016963;28;20181;-66
2023/05/02 01:59:19;;;;;;;102.55;7.78;;;24.20;37.90;;;;;;5018388;28;20085;-63
2023/05/02 02:01:47;;;;;;;103.85;9.23;;;23.90;39.50;;;;;;5014497;28;20259;-64
2023/05/02 02:04:15;;;;;;;69.93;5.97;;;23.70;39.70;;;;;;5019937;28;20077;-62
2023/05/02 02:06:49;;;;;;;75.80;6.70;;;23.60;40.40;;;;;;5018766;28;20139;-68
2023/05/02 02:09:16;;;;;;;59.30;6.80;;;23.40;41.50;;;;;;5020347;28;20199;-66
2023/05/02 02:11:56;;;;;;;69.63;5.60;;;23.30;41.80;;;;;;5019656;28;20081;-68
2023/05/02 02:14:32;;;;;;;39.00;5.45;;;23.10;42.30;;;;;;5016705;28;20069;-68
2023/05/02 02:17:01;;;;;;;44.20;5.25;;;23.10;42.30;;;;;;5015260;28;20079;-69
2023/05/02 02:19:30;;;;;;;41.20;4.72;;;23.00;42.50;;;;;;5017043;28;20093;-66
2023/05/02 02:21:58;;;;;;;46.58;5.07;;;22.90;42.80;;;;;;5017652;28;20199;-67
2023/05/02 02:24:25;;;;;;;73.55;6.18;;;22.70;43.20;;;;;;5023492;28;20156;-63
2023/05/02 02:26:52;;;;;;;61.00;6.05;;;22.70;43.00;;;;;;5020406;28;20069;-67
2023/05/02 02:29:18;;;;;;;55.38;5.80;;;22.70;43.10;;;;;;5017419;28;20076;-66
2023/05/02 02:31:45;;;;;;;38.22;5.07;;;22.70;42.90;;;;;;5020519;28;20081;-66
2023/05/02 02:34:11;;;;;;;40.30;5.50;;;22.60;42.90;;;;;;5018409;28;20087;-68
2023/05/02 02:36:48;;;;;;;45.60;5.90;;;22.60;43.00;;;;;;5022696;28;20065;-67
2023/05/02 02:39:32;;;;;;;;;;;22.50;43.00;;;;;;5022284;28;20167;-66
2023/05/02 02:42:10;;;;;;;39.33;5.13;;;22.40;43.30;;;;;;5020225;28;19967;-67
2023/05/02 02:44:39;;;;;;;27.33;5.00;;;22.30;43.60;;;;;;5023872;28;20095;-69
2023/05/02 02:47:11;;;;;;;20.38;3.65;;;22.20;43.80;;;;;;5022422;28;20077;-64
2023/05/02 02:49:48;;;;;;;36.78;4.22;;;22.10;43.90;;;;;;5021740;28;20173;-68
2023/05/02 02:52:39;;;;;;;22.92;3.58;;;21.90;44.20;;;;;;5024781;28;20069;-70
2023/05/02 02:55:17;;;;;;;22.15;4.03;;;21.90;43.50;;;;;;5021474;28;20069;-67
2023/05/02 02:58:01;;;;;;;31.30;3.65;;;21.80;44.00;;;;;;5019916;28;20503;-65
2023/05/02 03:00:29;;;;;;;30.98;4.50;;;21.90;44.10;;;;;;5023453;28;20120;-64
2023/05/02 03:02:56;;;;;;;99.50;7.55;;;21.70;45.70;;;;;;5017658;28;21653;-68
2023/05/02 03:05:23;;;;;;;40.20;5.15;;;21.40;46.90;;;;;;5024188;28;20069;-67
2023/05/02 03:07:50;;;;;;;33.63;4.53;;;21.20;47.80;;;;;;5020062;28;20461;-66
2023/05/02 03:10:17;;;;;;;42.53;4.85;;;21.00;48.30;;;;;;5018469;28;20097;-69
2023/05/02 03:12:43;;;;;;;60.67;6.22;;;20.90;48.50;;;;;;5007269;28;20089;-68
2023/05/02 03:15:30;;;;;;;51.05;4.78;;;20.80;48.60;;;;;;5021135;28;20077;-69
2023/05/02 03:17:56;;;;;;;35.58;4.65;;;20.70;47.90;;;;;;5013305;28;20084;-63
2023/05/02 03:20:23;;;;;;;32.08;4.32;;;20.80;47.70;;;;;;5023056;28;20187;-63
2023/05/02 03:22:49;;;;;;;31.85;4.18;;;20.70;47.80;;;;;;5021839;28;20444;-67
2023/05/02 03:25:15;;;;;;;46.25;5.07;;;20.70;47.70;;;;;;5021145;28;20128;-66
2023/05/02 03:27:42;;;;;;;56.60;5.00;;;20.70;47.90;;;;;;5024554;28;20557;-68
2023/05/02 03:30:09;;;;;;;57.78;5.18;;;20.60;48.50;;;;;;5021156;28;20115;-68
2023/05/02 03:32:35;;;;;;;23.90;3.90;;;20.50;49.30;;;;;;5021682;28;20089;-68
2023/05/02 03:35:01;;;;;;;51.35;4.85;;;20.40;50.00;;;;;;5020605;28;20449;-68
2023/05/02 03:37:28;;;;;;;47.17;4.50;;;20.10;50.60;;;;;;5022903;28;20084;-65
2023/05/02 03:39:54;;;;;;;36.25;5.25;;;20.00;50.80;;;;;;5024850;28;20085;-69
2023/05/02 03:42:21;;;;;;;55.33;5.40;;;20.00;50.70;;;;;;5018019;28;20552;-64
2023/05/02 03:44:50;;;;;;;43.72;5.00;;;19.90;51.10;;;;;;5019646;28;20089;-67
2023/05/02 03:47:17;;;;;;;42.03;4.68;;;19.80;51.60;;;;;;5016213;28;20122;-65
2023/05/02 03:49:43;;;;;;;42.65;4.85;;;19.80;51.70;;;;;;5019623;28;20473;-70
2023/05/02 03:52:10;;;;;;;35.63;4.43;;;19.70;51.70;;;;;;5021011;28;20111;-67
2023/05/02 03:54:36;;;;;;;44.30;4.63;;;19.60;51.60;;;;;;5021987;28;20065;-67
2023/05/02 03:57:03;;;;;;;39.63;4.30;;;19.60;51.70;;;;;;5017946;28;20124;-65
2023/05/02 03:59:34;;;;;;;57.08;5.07;;;19.60;51.00;;;;;;5016062;28;20433;-68
2023/05/02 04:02:00;;;;;;;50.13;4.60;;;19.50;51.00;;;;;;5020813;28;20093;-66
2023/05/02 04:04:26;;;;;;;39.28;4.28;;;19.60;49.90;;;;;;5016567;28;20148;-64
2023/05/02 04:06:53;;;;;;;34.33;4.03;;;19.70;48.60;;;;;;5020404;28;20164;-67
2023/05/02 04:09:23;;;;;;;43.65;4.72;;;19.80;47.80;;;;;;5020187;28;20085;-68
2023/05/02 04:11:51;;;;;;;23.75;3.15;;;19.90;47.10;;;;;;5019226;28;20113;-66
2023/05/02 04:14:17;;;;;;;40.13;4.47;;;20.00;47.10;;;;;;5019910;28;20073;-67
2023/05/02 04:16:50;;;;;;;38.13;3.67;;;19.90;47.50;;;;;;5013822;28;20073;-66
2023/05/02 04:19:18;;;;;;;23.90;3.63;;;20.00;47.90;;;;;;5018173;28;20100;-67
2023/05/02 04:21:44;;;;;;;30.65;2.90;;;20.00;47.90;;;;;;5019743;28;20088;-64
2023/05/02 04:24:12;;;;;;;15.13;3.10;;;20.00;47.80;;;;;;5019694;28;20152;-65
2023/05/02 04:26:38;;;;;;;25.63;3.35;;;19.90;48.40;;;;;;5015035;28;20068;-64
2023/05/02 04:29:05;;;;;;;34.45;3.92;;;19.90;48.80;;;;;;5020560;28;20088;-62
2023/05/02 04:31:31;;;;;;;20.88;3.35;;;19.90;48.70;;;;;;5019398;28;20073;-63
2023/05/02 04:33:58;;;;;;;24.90;3.35;;;19.80;49.20;;;;;;5019557;28;20161;-67
2023/05/02 04:36:27;;;;;;;21.40;3.45;;;19.70;50.20;;;;;;5016390;28;20139;-63
2023/05/02 04:38:53;;;;;;;20.45;3.20;;;19.50;51.00;;;;;;5017178;28;20093;-63
2023/05/02 04:41:20;;;;;;;28.10;3.85;;;19.40;51.10;;;;;;5017024;28;20127;-66
2023/05/02 04:43:46;;;;;;;21.92;3.20;;;19.30;51.50;;;;;;5016497;28;20072;-65
2023/05/02 04:46:13;;;;;;;28.05;3.40;;;19.30;51.10;;;;;;5015097;28;20076;-64
2023/05/02 04:48:40;;;;;;;31.67;3.92;;;19.20;50.90;;;;;;5012549;28;20116;-67
2023/05/02 04:51:08;;;;;;;22.15;3.03;;;19.30;50.90;;;;;;5015284;28;20068;-67
2023/05/02 04:53:35;;;;;;;19.83;3.40;;;19.20;51.00;;;;;;5017659;28;20065;-65
2023/05/02 04:56:01;;;;;;;21.10;3.65;;;19.20;51.20;;;;;;5011805;28;20544;-64
2023/05/02 04:58:27;;;;;;;34.53;3.40;;;19.00;51.50;;;;;;5015583;28;20916;-66
2023/05/02 05:00:54;;;;;;;23.92;3.92;;;19.00;51.90;;;;;;5009575;28;20576;-68
2023/05/02 05:03:21;;;;;;;26.48;3.53;;;19.00;52.10;;;;;;5013862;28;20069;-67
2023/05/02 05:05:48;;;;;;;24.88;3.53;;;18.90;52.30;;;;;;5012437;28;20077;-65
2023/05/02 05:08:14;;;;;;;29.58;3.85;;;18.80;52.70;;;;;;5012481;28;20089;-62
2023/05/02 05:10:40;;;;;;;30.33;3.92;;;18.70;53.10;;;;;;5012693;28;20073;-66
2023/05/02 05:13:07;;;;;;;33.85;3.53;;;18.50;53.30;;;;;;5011896;28;20073;-65
2023/05/02 05:15:33;;;;;;;27.48;3.67;;;18.50;53.60;;;;;;5010884;28;20073;-69
2023/05/02 05:17:59;;;;;;;44.15;8.15;;;18.50;53.50;;;;;;5012397;28;20073;-68
2023/05/02 05:20:26;;;;;;;27.10;4.40;;;18.50;53.60;;;;;;5013857;28;20073;-66
2023/05/02 05:22:52;;;;;;;18.75;3.50;;;18.60;53.70;;;;;;5016090;28;20084;-67
2023/05/02 05:25:19;;;;;;;17.40;5.70;;;18.40;53.70;;;;;;5019149;28;20120;-68
2023/05/02 05:27:45;;;;;;;19.40;3.17;;;18.40;53.60;;;;;;5013971;28;20101;-65
2023/05/02 05:30:12;;;;;;;15.20;3.05;;;18.40;53.40;;;;;;5014768;28;20081;-67
2023/05/02 05:32:39;;;;;;;27.33;4.05;;;18.40;53.80;;;;;;5022070;28;20064;-64
2023/05/02 05:35:06;;;;;;;22.80;3.03;;;18.30;53.90;;;;;;5023728;28;20096;-66
2023/05/02 05:37:32;;;;;;;27.92;3.17;;;18.20;54.10;;;;;;5022840;28;20592;-67
2023/05/02 05:39:59;;;;;;;28.42;3.72;;;18.10;54.30;;;;;;5028084;28;20438;-68
2023/05/02 05:42:25;;;;;;;34.67;4.38;;;18.10;54.40;;;;;;5023858;28;20077;-69
2023/05/02 05:44:52;;;;;;;38.72;3.47;;;18.20;54.40;;;;;;5025399;28;20092;-69
2023/05/02 05:47:22;;;;;;;23.67;2.92;;;18.00;54.70;;;;;;5020535;28;20064;-70
2023/05/02 05:49:52;;;;;;;20.80;3.33;;;18.00;55.10;;;;;;5021609;28;20440;-69
2023/05/02 05:52:19;;;;;;;15.13;2.60;;;17.90;55.20;;;;;;5006292;28;20525;-70
2023/05/02 05:54:45;;;;;;;20.17;2.85;;;17.90;55.00;;;;;;5018889;28;20440;-71
2023/05/02 05:57:12;;;;;;;19.67;2.63;;;17.90;55.00;;;;;;5021632;28;20113;-68
2023/05/02 05:59:38;;;;;;;28.38;3.10;;;17.90;55.80;;;;;;5021295;28;20084;-68
2023/05/02 06:02:04;;;;;;;35.00;2.83;;;17.80;55.30;;;;;;5025727;28;20076;-67
2023/05/02 06:04:32;;;;;;;22.48;3.40;;;17.80;55.10;;;;;;5024862;28;20559;-68
2023/05/02 06:06:58;;;;;;;14.60;3.10;;;17.80;55.10;;;;;;5025651;28;20076;-69
2023/05/02 06:09:25;;;;;;;18.33;2.47;;;17.80;55.20;;;;;;5019673;28;20085;-68
2023/05/02 06:11:51;;;;;;;13.05;2.47;;;17.90;55.20;;;;;;5017616;28;20382;-68
2023/05/02 06:14:18;;;;;;;13.95;2.15;;;17.90;55.10;;;;;;5019203;28;20080;-68
2023/05/02 06:16:44;;;;;;;18.27;3.00;;;17.90;55.10;;;;;;5023835;28;20156;-68
2023/05/02 06:19:10;;;;;;;15.48;2.63;;;17.90;55.00;;;;;;5023548;28;20095;-69
2023/05/02 06:21:37;;;;;;;19.02;2.92;;;17.90;54.90;;;;;;5021766;28;20083;-70
2023/05/02 06:24:03;;;;;;;14.88;2.60;;;17.90;54.70;;;;;;5020286;28;20116;-69
2023/05/02 06:26:30;;;;;;;13.57;2.60;;;18.00;54.60;;;;;;5025888;28;20061;-71
2023/05/02 06:28:56;;;;;;;16.77;2.38;;;18.00;54.40;;;;;;5021695;28;20096;-68
2023/05/02 06:31:23;;;;;;;19.15;3.60;;;18.00;54.20;;;;;;5018726;28;20074;-68
2023/05/02 06:33:50;;;;;;;17.00;3.63;;;17.90;54.30;;;;;;5026717;28;20077;-69
2023/05/02 06:36:16;;;;;;;11.57;2.08;;;17.90;54.50;;;;;;5019541;28;20093;-67
2023/05/02 06:38:43;;;;;;;6.45;2.03;;;17.90;54.70;;;;;;5020091;28;20093;-69
2023/05/02 06:41:16;;;;;;;7.60;2.00;;;17.80;54.90;;;;;;5020911;28;20088;-69
2023/05/02 06:43:42;;;;;;;13.02;2.33;;;17.80;55.20;;;;;;5018733;28;20541;-67
2023/05/02 06:46:09;;;;;;;15.00;2.13;;;17.70;55.40;;;;;;5017361;28;20077;-68
2023/05/02 06:48:35;;;;;;;15.48;2.60;;;17.70;55.60;;;;;;5013517;28;20092;-66
2023/05/02 06:51:03;;;;;;;13.45;2.38;;;17.60;55.70;;;;;;5023814;28;20077;-71
2023/05/02 06:53:31;;;;;;;12.68;2.45;;;17.60;55.90;;;;;;5018990;28;20194;-69
2023/05/02 06:55:57;;;;;;;8.07;2.63;;;17.70;56.20;;;;;;5019815;28;20070;-67
2023/05/02 06:58:23;;;;;;;12.00;2.10;;;17.60;56.20;;;;;;5028715;28;20130;-69
2023/05/02 07:00:50;;;;;;;6.60;1.95;;;17.60;56.20;;;;;;5021799;28;20158;-69
2023/05/02 07:03:16;;;;;;;9.55;2.20;;;17.50;56.40;;;;;;5022890;28;20089;-70
2023/05/02 07:05:43;;;;;;;9.57;2.50;;;17.50;56.50;;;;;;5023569;28;20077;-68
2023/05/02 07:08:10;;;;;;;7.78;1.83;;;17.50;56.60;;;;;;5016456;28;20085;-69
2023/05/02 07:10:36;;;;;;;7.00;1.73;;;17.50;56.80;;;;;;5016770;28;20096;-69
2023/05/02 07:13:03;;;;;;;9.18;2.15;;;17.50;56.90;;;;;;5019180;28;20108;-68
2023/05/02 07:15:29;;;;;;;10.88;2.22;;;17.50;56.80;;;;;;5018793;28;20496;-66
2023/05/02 07:17:55;;;;;;;11.48;1.98;;;17.50;56.90;;;;;;5016916;28;20074;-66
2023/05/02 07:20:22;;;;;;;9.15;2.78;;;17.40;57.00;;;;;;5016180;28;20452;-69
2023/05/02 07:22:49;;;;;;;16.45;2.80;;;17.50;57.30;;;;;;5021925;28;20618;-67
2023/05/02 07:25:16;;;;;;;18.45;2.60;;;17.50;57.20;;;;;;5018805;28;20081;-66
2023/05/02 07:27:42;;;;;;;13.77;2.28;;;17.40;57.40;;;;;;5021920;28;20093;-64
2023/05/02 07:30:08;;;;;;;10.27;1.75;;;17.40;57.40;;;;;;5017256;28;20073;-69
2023/05/02 07:32:35;;;;;;;15.00;2.33;;;17.40;57.60;;;;;;5022697;28;20071;-66
2023/05/02 07:35:01;;;;;;;11.38;2.10;;;17.40;57.60;;;;;;5023118;28;20077;-66
2023/05/02 07:37:35;;;;;;;7.85;1.80;;;17.40;57.80;;;;;;5020336;28;20101;-66
2023/05/02 07:40:02;;;;;;;9.50;2.00;;;17.40;57.60;;;;;;5023939;28;20079;-67
2023/05/02 07:42:32;;;;;;;6.95;1.90;;;17.40;57.70;;;;;;5022327;28;20096;-68
2023/05/02 07:44:59;;;;;;;14.75;2.50;;;17.40;57.60;;;;;;5018834;28;20139;-64
2023/05/02 07:47:25;;;;;;;11.65;2.80;;;17.40;57.80;;;;;;5018717;28;20089;-65
2023/05/02 07:49:53;;;;;;;8.88;2.13;;;17.30;57.80;;;;;;5021002;28;20072;-68
2023/05/02 07:52:20;;;;;;;12.95;2.40;;;17.30;57.80;;;;;;5026167;28;20080;-69
2023/05/02 07:54:50;;;;;;;8.40;1.67;;;17.30;57.80;;;;;;5018497;28;20588;-69
2023/05/02 07:57:16;;;;;;;9.52;1.80;;;17.30;57.70;;;;;;5016482;28;20143;-70
2023/05/02 07:59:43;;;;;;;8.63;1.95;;;17.30;57.60;;;;;;5013437;28;20076;-70
2023/05/02 08:02:11;;;;;;;9.88;2.25;;;17.30;57.70;;;;;;5017764;28;20542;-69
2023/05/02 08:04:38;;;;;;;7.43;2.00;;;17.30;57.50;;;;;;5020023;28;20066;-73
2023/05/02 08:07:05;;;;;;;10.68;2.25;;;17.20;57.60;;;;;;5019474;28;20061;-69
2023/05/02 08:09:31;;;;;;;10.27;2.25;;;17.30;57.60;;;;;;5019304;28;20124;-67
2023/05/02 08:11:58;;;;;;;6.78;2.10;;;17.20;57.40;;;;;;5018979;28;20072;-72
2023/05/02 08:14:24;;;;;;;9.02;1.80;;;17.10;57.50;;;;;;5042239;23;20121;-61
2023/05/02 08:16:51;;;;;;;10.82;2.03;;;17.20;57.70;;;;;;5040326;28;20069;-63
2023/05/02 08:19:17;;;;;;;12.07;2.20;;;17.10;57.90;;;;;;5039033;28;20083;-62
2023/05/02 08:21:44;;;;;;;12.43;1.83;;;17.10;58.00;;;;;;5042439;28;20094;-63
2023/05/02 08:24:10;;;;;;;8.80;1.60;;;17.00;57.90;;;;;;5025568;28;20098;-62
2023/05/02 08:26:37;;;;;;;12.10;1.75;;;17.00;58.10;;;;;;5041160;28;20088;-63
2023/05/02 08:29:03;;;;;;;10.98;2.30;;;17.00;58.00;;;;;;5042738;28;20085;-63
2023/05/02 08:31:30;;;;;;;9.35;1.67;;;17.00;58.10;;;;;;5043955;28;20064;-63
2023/05/02 08:33:56;;;;;;;15.25;2.35;;;16.90;58.20;;;;;;5040319;28;20084;-63
2023/05/02 08:36:24;;;;;;;11.00;2.03;;;16.90;58.30;;;;;;5041128;28;20550;-61
2023/05/02 08:38:50;;;;;;;10.43;2.92;;;16.90;58.30;;;;;;5042667;28;20142;-60
2023/05/02 08:41:18;;;;;;;30.90;11.07;;;16.90;58.30;;;;;;5046868;28;20112;-60
2023/05/02 08:43:45;;;;;;;10.40;2.13;;;16.90;58.50;;;;;;5039578;28;20076;-60
2023/05/02 08:46:13;;;;;;;8.20;1.83;;;16.90;58.50;;;;;;5044131;28;20079;-62
2023/05/02 08:48:41;;;;;;;7.63;1.60;;;17.00;58.60;;;;;;5035445;28;20537;-62
2023/05/02 08:51:15;;;;;;;16.23;1.80;;;16.90;58.30;;;;;;5039279;28;20082;-61
2023/05/02 08:53:42;;;;;;;12.52;2.08;;;16.90;58.60;;;;;;5038938;28;20091;-63
2023/05/02 08:56:10;;;;;;;16.40;1.80;;;16.90;58.80;;;;;;5042371;28;20079;-60
2023/05/02 08:58:38;;;;;;;10.60;2.03;;;16.80;58.80;;;;;;5022029;28;20158;-63
2023/05/02 09:01:16;;;;;;;13.18;2.00;;;16.80;59.10;;;;;;5018144;28;20079;-62
2023/05/02 09:03:44;;;;;;;12.13;1.80;;;16.80;59.10;;;;;;5025790;28;20076;-63
2023/05/02 09:06:14;;;;;;;7.78;1.55;;;16.70;59.10;;;;;;5026897;28;20156;-62
2023/05/02 09:08:42;;;;;;;10.30;1.92;;;16.80;59.80;;;;;;5025292;28;20093;-61
2023/05/02 09:11:11;;;;;;;19.13;2.25;;;16.80;59.20;;;;;;5027951;28;20507;-60
2023/05/02 09:13:39;;;;;;;16.23;1.98;;;16.70;59.10;;;;;;5027017;28;20167;-62
2023/05/02 09:16:11;;;;;;;13.65;1.75;;;16.70;59.20;;;;;;5021074;28;20506;-61
2023/05/02 09:18:40;;;;;;;15.15;2.22;;;16.60;59.10;;;;;;5030143;28;20091;-61
2023/05/02 09:21:15;;;;;;;19.23;2.10;;;16.60;59.30;;;;;;5029905;28;20155;-63
2023/05/02 09:23:46;;;;;;;16.08;2.10;;;16.60;59.20;;;;;;5024957;28;20073;-63
2023/05/02 09:26:26;;;;;;;14.68;1.90;;;16.60;59.20;;;;;;5022769;28;20139;-62
2023/05/02 09:28:56;;;;;;;9.60;1.80;;;16.60;59.00;;;;;;5027440;28;20125;-61
2023/05/02 09:31:25;;;;;;;14.32;2.17;;;16.60;59.00;;;;;;5025470;28;20694;-63
2023/05/02 09:33:52;;;;;;;8.07;1.75;;;16.60;59.10;;;;;;5026168;28;20092;-63
2023/05/02 09:36:20;;;;;;;12.98;2.08;;;16.50;59.00;;;;;;5023592;28;20069;-63
2023/05/02 09:38:49;;;;;;;11.90;1.73;;;16.50;59.00;;;;;;5021943;28;20430;-61
2023/05/02 09:41:20;;;;;;;18.42;2.40;;;16.50;59.20;;;;;;5020464;28;20124;-62
2023/05/02 09:43:56;;;;;;;20.75;1.98;;;16.40;59.10;;;;;;5025906;28;20500;-62
2023/05/02 09:46:23;;;;;;;13.73;2.00;;;16.40;58.90;;;;;;5024535;28;20163;-61
2023/05/02 09:48:55;;;;;;;8.50;1.90;;;16.30;58.90;;;;;;5026377;28;20581;-62
2023/05/02 09:51:23;;;;;;;14.32;1.85;;;16.40;58.80;;;;;;5027534;28;20096;-62
2023/05/02 09:53:50;;;;;;;13.88;1.75;;;16.40;58.60;;;;;;5021971;28;20590;-62
2023/05/02 09:56:17;;;;;;;24.50;2.00;;;16.40;58.30;;;;;;5027509;28;20108;-62
2023/05/02 09:58:44;;;;;;;14.95;1.67;;;16.40;58.40;;;;;;5023549;28;20143;-63
2023/05/02 10:01:15;;;;;;;13.10;2.45;;;16.40;58.40;;;;;;5028068;28;20160;-63
2023/05/02 10:03:46;;;;;;;8.85;1.50;;;16.50;58.50;;;;;;5024219;28;20073;-62
2023/05/02 10:06:14;;;;;;;10.50;2.03;;;16.50;58.50;;;;;;5024768;28;20087;-62
2023/05/02 10:08:44;;;;;;;14.43;1.73;;;16.40;58.50;;;;;;5024972;28;20095;-60
2023/05/02 10:11:12;;;;;;;8.75;1.63;;;16.40;58.50;;;;;;5025924;28;20435;-60
2023/05/02 10:13:41;;;;;;;6.20;1.20;;;16.40;58.60;;;;;;5024413;28;20737;-61
2023/05/02 10:16:11;;;;;;;9.75;1.65;;;16.40;58.60;;;;;;5019790;28;20554;-59
2023/05/02 10:19:08;;;;;;;8.85;1.40;;;16.40;58.40;;;;;;5023744;28;20080;-61
2023/05/02 10:21:36;;;;;;;15.82;2.10;;;16.30;58.60;;;;;;5027961;28;20119;-63
2023/05/02 10:24:03;;;;;;;11.65;1.58;;;16.30;58.50;;;;;;5017616;28;20087;-62
2023/05/02 10:26:30;;;;;;;6.65;1.25;;;16.30;58.30;;;;;;5024270;28;20097;-63
2023/05/02 10:28:57;;;;;;;10.50;1.60;;;16.30;58.10;;;;;;5024832;28;20093;-60
2023/05/02 10:31:24;;;;;;;7.03;1.08;;;16.30;58.00;;;;;;5025362;28;20087;-63
2023/05/02 10:33:51;;;;;;;7.22;1.08;;;16.30;57.70;;;;;;5024406;28;20080;-63
2023/05/02 10:36:21;;;;;;;15.60;1.58;;;16.20;57.60;;;;;;5022372;28;20080;-62
2023/05/02 10:38:48;;;;;;;9.10;1.67;;;16.30;57.80;;;;;;5025297;28;20580;-62
2023/05/02 10:41:26;;;;;;;6.13;1.27;;;16.20;57.70;;;;;;5024497;28;20078;-61
2023/05/02 10:43:53;;;;;;;7.78;1.38;;;16.20;57.80;;;;;;5023321;28;20095;-63
2023/05/02 10:46:42;;;;;;;6.35;1.40;;;16.20;57.90;;;;;;5023854;28;20122;-64
2023/05/02 10:49:13;;;;;;;5.03;1.45;;;16.20;57.90;;;;;;5022957;28;20580;-62
2023/05/02 10:51:41;;;;;;;9.98;1.40;;;16.20;57.60;;;;;;5028782;28;20078;-64
2023/05/02 10:54:17;;;;;;;5.00;1.40;;;16.10;57.60;;;;;;5025115;28;20070;-63
2023/05/02 10:57:06;;;;;;;8.97;1.07;;;16.10;57.90;;;;;;5018004;28;20558;-61
2023/05/02 10:59:35;;;;;;;4.03;1.00;;;16.10;57.70;;;;;;5023602;28;20417;-63
2023/05/02 11:02:02;;;;;;;6.03;1.30;;;16.20;57.60;;;;;;5018471;28;20085;-65
2023/05/02 11:05:01;;;;;;;6.85;1.20;;;16.20;57.50;;;;;;5023209;28;20105;-62
2023/05/02 11:07:28;;;;;;;6.85;1.10;;;16.20;57.60;;;;;;4968749;28;20083;-62
2023/05/02 11:10:14;;;;;;;5.90;1.33;;;16.20;57.40;;;;;;4969261;28;20606;-64
2023/05/02 11:12:48;;;;;;;6.13;1.05;;;16.20;57.40;;;;;;4969383;28;20121;-63
2023/05/02 11:15:41;;;;;;;7.22;1.10;;;16.20;57.40;;;;;;4968777;28;20106;-63
2023/05/02 11:18:12;;;;;;;6.55;1.17;;;16.20;57.00;;;;;;4958708;28;20082;-62
2023/05/02 11:20:43;;;;;;;5.57;1.20;;;16.30;57.00;;;;;;4968271;28;20145;-63
2023/05/02 11:25:46;;;;;;;5.47;0.90;;;16.30;56.70;;;;;;4969210;28;20459;-63
2023/05/02 11:28:37;;;;;;;3.30;0.90;;;16.30;56.70;;;;;;4969039;28;20098;-62
2023/05/02 11:31:09;;;;;;;5.15;1.10;;;16.30;56.90;;;;;;4966735;28;20086;-64
2023/05/02 11:33:36;;;;;;;2.70;1.10;;;16.30;56.70;;;;;;4968855;28;20075;-64
2023/05/02 11:36:03;;;;;;;2.75;0.90;;;16.30;56.70;;;;;;4966206;28;20150;-62
2023/05/02 11:38:38;;;;;;;4.40;1.10;;;16.30;56.80;;;;;;4950997;28;20216;-63
2023/05/02 11:41:04;;;;;;;6.50;1.08;;;16.20;56.50;;;;;;4966472;28;20075;-63
2023/05/02 11:43:31;;;;;;;1.98;0.80;;;16.20;56.80;;;;;;4991162;28;20546;-63
2023/05/02 11:45:59;;;;;;;4.43;1.00;;;16.30;56.50;;;;;;5022352;28;20079;-63
2023/05/02 11:48:29;;;;;;;3.15;0.98;;;16.20;56.70;;;;;;5023852;28;20093;-62
2023/05/02 11:51:04;;;;;;;5.38;1.15;;;16.20;56.40;;;;;;5022406;28;20078;-63
2023/05/02 11:53:30;;;;;;;4.18;1.17;;;16.20;56.80;;;;;;5023467;28;20801;-62
2023/05/02 11:56:00;;;;;;;9.73;1.50;;;16.20;56.40;;;;;;5023188;28;20081;-62
2023/05/02 11:58:28;;;;;;;4.43;1.50;;;16.20;56.10;;;;;;5024762;28;20100;-62
2023/05/02 12:00:56;;;;;;;7.05;1.05;;;16.20;55.90;;;;;;5022739;28;20076;-62
2023/05/02 12:03:30;;;;;;;4.45;1.05;;;16.20;55.80;;;;;;5023562;28;20085;-63
2023/05/02 12:06:08;;;;;;;5.70;1.20;;;16.20;56.10;;;;;;5025908;28;20097;-63
2023/05/02 12:08:37;;;;;;;6.35;1.50;;;16.20;55.90;;;;;;5021901;28;20160;-62
2023/05/02 12:11:05;;;;;;;4.75;1.35;;;16.10;55.90;;;;;;5020958;28;20090;-63
2023/05/02 12:13:32;;;;;;;5.70;1.27;;;16.10;55.90;;;;;;5024016;28;20101;-62
2023/05/02 12:15:58;;;;;;;4.38;1.30;;;16.10;55.90;;;;;;5020372;28;20180;-62
2023/05/02 12:18:26;;;;;;;3.67;1.10;;;16.20;56.30;;;;;;5026999;28;20484;-61
2023/05/02 12:20:54;;;;;;;5.97;1.70;;;16.20;56.30;;;;;;5023845;28;20080;-60
2023/05/02 12:23:25;;;;;;;4.03;1.63;;;16.20;56.40;;;;;;5021962;28;20493;-63
2023/05/02 12:25:51;;;;;;;4.35;1.30;;;16.10;56.80;;;;;;5024156;28;20085;-62
2023/05/02 12:28:19;;;;;;;4.90;1.20;;;16.20;57.00;;;;;;5020475;28;20097;-61
2023/05/02 12:30:48;;;;;;;6.47;1.40;;;16.10;56.90;;;;;;5017099;28;20084;-63
2023/05/02 12:33:16;;;;;;;6.65;1.50;;;16.20;56.80;;;;;;5024748;28;20141;-62
2023/05/02 12:35:44;;;;;;;4.65;1.30;;;16.10;56.60;;;;;;5022634;28;20518;-64
2023/05/02 12:38:22;;;;;;;3.90;1.30;;;16.10;56.60;;;;;;5022904;28;20073;-62
2023/05/02 12:40:56;;;;;;;3.40;1.23;;;16.10;56.40;;;;;;5024823;28;20070;-64
2023/05/02 12:43:23;;;;;;;4.70;1.45;;;16.10;56.20;;;;;;5024758;28;20084;-63
2023/05/02 12:45:52;;;;;;;4.80;1.52;;;16.10;56.10;;;;;;5019725;28;20086;-64
2023/05/02 12:48:26;;;;;;;5.70;1.58;;;16.10;56.30;;;;;;5022447;28;20090;-63
2023/05/02 12:50:54;;;;;;;3.92;1.45;;;15.90;56.50;;;;;;5021019;28;20074;-62
2023/05/02 12:53:40;;;;;;;4.13;1.35;;;16.00;56.60;;;;;;5020782;28;20101;-63